createdAt,value
2022-09-12T00:00:34.260Z,97.64
2022-09-12T00:04:02.293Z,97.72
2022-09-12T00:06:48.946Z,98.05
2022-09-12T00:09:33.512Z,97.90
2022-09-12T00:12:14.278Z,98.08
2022-09-12T00:15:11.048Z,98.48
2022-09-12T00:17:42.802Z,98.19
2022-09-12T00:20:13.067Z,98.34
2022-09-12T00:22:53.523Z,98.43
2022-09-12T00:25:53.359Z,98.48
2022-09-12T00:28:28.382Z,98.29
2022-09-12T00:31:23.583Z,98.35
2022-09-12T00:34:15.720Z,98.34
2022-09-12T00:37:03.780Z,98.45
2022-09-12T00:39:43.671Z,98.69
2022-09-12T00:42:47.524Z,98.52
2022-09-12T00:45:52.351Z,98.59
2022-09-12T00:48:49.647Z,98.77
2022-09-12T00:52:21.051Z,98.62
2022-09-12T00:55:49.426Z,98.87
2022-09-12T00:58:58.336Z,98.58
2022-09-12T01:01:54.753Z,98.71
2022-09-12T01:05:08.207Z,98.77
2022-09-12T01:11:26.870Z,99.05
2022-09-12T01:15:02.003Z,98.73
2022-09-12T01:18:41.375Z,98.98
2022-09-12T01:22:16.246Z,99.14
2022-09-12T01:26:06.142Z,99.05
2022-09-12T01:29:41.606Z,98.90
2022-09-12T01:37:08.621Z,99.14
2022-09-12T01:40:40.992Z,99.45
2022-09-12T01:43:38.463Z,99.37
2022-09-12T01:47:11.759Z,99.38
2022-09-12T01:50:48.982Z,99.30
2022-09-12T01:54:23.232Z,99.35
2022-09-12T01:57:53.124Z,99.59
2022-09-12T02:01:20.935Z,99.55
2022-09-12T02:04:34.272Z,99.51
2022-09-12T02:07:43.318Z,99.58
2022-09-12T02:12:00.831Z,99.53
2022-09-12T02:15:28.599Z,99.77
2022-09-12T02:18:19.437Z,99.76
2022-09-12T02:20:58.136Z,99.64
2022-09-12T02:23:55.496Z,99.72
2022-09-12T02:27:27.967Z,99.48
2022-09-12T02:30:29.825Z,99.87
2022-09-12T02:33:55.249Z,99.89
2022-09-12T02:37:42.848Z,99.78
2022-09-12T02:40:49.875Z,99.74
2022-09-12T02:43:44.292Z,99.75
2022-09-12T02:47:33.998Z,99.87
2022-09-12T02:58:04.580Z,100.00
2022-09-12T03:01:44.847Z,100.00
2022-09-12T03:04:30.096Z,100.00
2022-09-12T03:11:29.078Z,100.00
2022-09-12T03:14:49.438Z,100.00
2022-09-12T03:18:05.290Z,100.00
2022-09-12T03:21:44.878Z,100.00
2022-09-12T03:25:17.168Z,100.00
2022-09-12T03:28:26.187Z,100.00
2022-09-12T03:31:49.246Z,100.00
2022-09-12T03:34:41.221Z,100.00
2022-09-12T03:37:42.072Z,100.00
2022-09-12T03:41:18.759Z,100.00
2022-09-12T03:44:04.758Z,100.00
2022-09-12T03:47:13.143Z,100.00
2022-09-12T03:50:11.713Z,100.00
2022-09-12T03:53:03.551Z,100.00
2022-09-12T03:56:02.898Z,100.00
2022-09-12T03:58:43.968Z,100.00
2022-09-12T04:01:57.989Z,100.00
2022-09-12T04:05:11.410Z,100.00
2022-09-12T04:08:25.627Z,100.00
2022-09-12T04:11:34.400Z,100.00
2022-09-12T04:18:32.651Z,100.00
2022-09-12T04:25:34.606Z,100.00
2022-09-12T04:28:38.407Z,100.00
2022-09-12T04:32:09.528Z,100.00
2022-09-12T04:35:13.684Z,100.00
2022-09-12T04:38:24.659Z,100.00
2022-09-12T04:41:23.980Z,100.00
2022-09-12T04:44:46.243Z,100.00
2022-09-12T04:47:55.254Z,100.00
2022-09-12T04:50:44.971Z,100.00
2022-09-12T04:54:02.405Z,100.00
2022-09-12T04:57:15.541Z,100.00
2022-09-12T05:00:47.620Z,100.00
2022-09-12T05:03:45.074Z,100.00
2022-09-12T05:07:14.992Z,100.00
2022-09-12T05:10:15.972Z,100.00
2022-09-12T05:13:23.846Z,100.00
2022-09-12T05:16:50.212Z,100.00
2022-09-12T05:23:01.944Z,100.00
2022-09-12T05:26:31.642Z,100.00
2022-09-12T05:30:36.366Z,100.00
2022-09-12T05:33:50.125Z,100.00
2022-09-12T05:37:26.549Z,100.00
2022-09-12T05:41:12.349Z,100.00
2022-09-12T05:43:44.085Z,100.00
2022-09-12T05:46:20.382Z,100.00
2022-09-12T05:48:53.718Z,100.00
2022-09-12T05:51:27.322Z,100.00
2022-09-12T05:53:58.804Z,100.00
2022-09-12T05:56:30.725Z,100.00
2022-09-12T05:59:04.880Z,100.00
2022-09-12T06:01:35.243Z,100.00
2022-09-12T06:04:18.987Z,100.00
2022-09-12T06:07:36.362Z,100.00
2022-09-12T06:11:02.414Z,100.00
2022-09-12T06:13:55.638Z,100.00
2022-09-12T06:16:59.714Z,100.00
2022-09-12T06:19:51.091Z,100.00
2022-09-12T06:22:38.101Z,100.00
2022-09-12T06:25:17.092Z,100.00
2022-09-12T06:28:49.801Z,100.00
2022-09-12T06:31:57.515Z,100.00
2022-09-12T06:34:44.055Z,100.00
2022-09-12T06:38:28.374Z,100.00
2022-09-12T06:42:01.227Z,100.00
2022-09-12T06:48:52.060Z,100.00
2022-09-12T06:51:38.644Z,100.00
2022-09-12T06:54:17.214Z,100.00
2022-09-12T06:56:48.854Z,100.00
2022-09-12T06:59:26.883Z,100.00
2022-09-12T07:01:59.662Z,100.00
2022-09-12T07:04:28.522Z,100.00
2022-09-12T07:06:56.967Z,99.87
2022-09-12T07:09:28.436Z,99.18
2022-09-12T07:12:11.492Z,98.49
2022-09-12T07:14:41.586Z,98.14
2022-09-12T07:17:10.275Z,97.54
2022-09-12T07:19:39.061Z,97.34
2022-09-12T07:22:15.005Z,97.70
2022-09-12T07:24:43.474Z,97.79
2022-09-12T07:27:27.516Z,97.43
2022-09-12T07:29:56.514Z,96.42
2022-09-12T07:32:25.052Z,95.64
2022-09-12T07:34:59.243Z,95.36
2022-09-12T07:37:40.479Z,95.06
2022-09-12T07:40:14.997Z,94.71
2022-09-12T07:42:46.104Z,94.22
2022-09-12T07:45:14.363Z,94.17
2022-09-12T07:47:42.956Z,93.67
2022-09-12T07:50:12.570Z,93.22
2022-09-12T07:53:04.006Z,92.29
2022-09-12T07:55:33.089Z,91.41
2022-09-12T07:58:29.502Z,89.82
2022-09-12T08:01:25.043Z,87.69
2022-09-12T08:04:01.854Z,87.62
2022-09-12T08:06:40.017Z,87.06
2022-09-12T08:09:09.416Z,87.06
2022-09-12T08:11:46.861Z,86.14
2022-09-12T08:14:18.044Z,84.96
2022-09-12T08:16:46.581Z,84.38
2022-09-12T08:19:15.162Z,83.56
2022-09-12T08:21:47.624Z,81.78
2022-09-12T08:24:21.540Z,81.66
2022-09-12T08:26:50.267Z,80.97
2022-09-12T08:29:25.269Z,81.12
2022-09-12T08:32:03.950Z,80.46
2022-09-12T08:34:32.660Z,79.56
2022-09-12T08:37:02.079Z,79.06
2022-09-12T08:39:34.072Z,78.16
2022-09-12T08:42:05.959Z,77.76
2022-09-12T08:45:17.396Z,78.08
2022-09-12T08:47:47.295Z,77.29
2022-09-12T08:50:20.040Z,77.73
2022-09-12T08:52:59.266Z,77.97
2022-09-12T08:55:27.712Z,77.62
2022-09-12T08:57:57.598Z,78.07
2022-09-12T09:00:40.369Z,77.78
2022-09-12T09:03:39.058Z,76.59
2022-09-12T09:06:20.145Z,76.06
2022-09-12T09:09:04.048Z,75.78
2022-09-12T09:12:07.923Z,75.07
2022-09-12T09:15:15.184Z,74.08
2022-09-12T09:17:51.323Z,73.18
2022-09-12T09:20:59.872Z,73.27
2022-09-12T09:23:39.351Z,74.19
2022-09-12T09:26:16.118Z,75.13
2022-09-12T09:28:53.457Z,75.32
2022-09-12T09:31:27.693Z,75.12
2022-09-12T09:33:57.718Z,75.78
2022-09-12T09:37:17.139Z,74.68
2022-09-12T09:40:36.125Z,75.05
2022-09-12T09:43:13.760Z,74.79
2022-09-12T09:45:47.814Z,74.46
2022-09-12T09:48:33.126Z,74.93
2022-09-12T09:51:15.286Z,74.69
2022-09-12T09:54:11.612Z,75.19
2022-09-12T09:56:43.662Z,74.80
2022-09-12T09:59:27.667Z,74.87
2022-09-12T10:02:23.866Z,75.49
2022-09-12T10:04:58.607Z,75.81
2022-09-12T10:07:27.908Z,75.73
2022-09-12T10:10:18.151Z,75.64
2022-09-12T10:12:46.414Z,75.90
2022-09-12T10:15:23.933Z,75.68
2022-09-12T10:17:56.744Z,75.33
2022-09-12T10:21:07.166Z,75.63
2022-09-12T10:23:44.437Z,75.44
2022-09-12T10:26:22.388Z,75.75
2022-09-12T10:28:56.823Z,75.80
2022-09-12T10:31:36.399Z,76.00
2022-09-12T10:34:05.913Z,75.85
2022-09-12T10:36:55.286Z,74.93
2022-09-12T10:39:45.601Z,74.60
2022-09-12T10:42:23.264Z,74.82
2022-09-12T10:44:56.027Z,73.49
2022-09-12T10:47:51.879Z,73.27
2022-09-12T10:51:00.234Z,73.17
2022-09-12T10:53:52.739Z,71.64
2022-09-12T10:56:37.282Z,71.95
2022-09-12T10:59:26.926Z,71.90
2022-09-12T11:02:36.735Z,71.78
2022-09-12T11:05:46.396Z,71.41
2022-09-12T11:08:31.090Z,71.05
2022-09-12T11:11:35.000Z,70.81
2022-09-12T11:14:28.072Z,70.66
2022-09-12T11:17:14.952Z,71.12
2022-09-12T11:20:02.606Z,71.82
2022-09-12T11:22:44.758Z,71.34
2022-09-12T11:25:31.286Z,72.18
2022-09-12T11:28:16.062Z,71.91
2022-09-12T11:31:42.047Z,72.20
2022-09-12T11:35:00.127Z,72.58
2022-09-12T11:38:01.127Z,72.65
2022-09-12T11:41:18.718Z,71.89
2022-09-12T11:43:54.783Z,71.72
2022-09-12T11:46:33.530Z,71.74
2022-09-12T11:49:19.936Z,71.94
2022-09-12T11:51:58.647Z,71.93
2022-09-12T11:54:51.478Z,71.87
2022-09-12T11:57:39.728Z,71.56
2022-09-12T12:00:19.783Z,71.73
2022-09-12T12:03:11.565Z,71.64
2022-09-12T12:06:21.708Z,71.59
2022-09-12T12:09:08.805Z,71.69
2022-09-12T12:11:59.673Z,71.79
2022-09-12T12:14:55.798Z,71.95
2022-09-12T12:17:34.689Z,71.57
2022-09-12T12:20:20.349Z,71.62
2022-09-12T12:23:48.295Z,71.65
2022-09-12T12:26:40.878Z,71.11
2022-09-12T12:29:40.305Z,70.55
2022-09-12T12:32:18.959Z,69.72
2022-09-12T12:34:48.588Z,69.68
2022-09-12T12:37:21.564Z,68.95
2022-09-12T12:40:01.648Z,68.56
2022-09-12T12:42:34.838Z,68.72
2022-09-12T12:45:10.320Z,67.61
2022-09-12T12:47:46.491Z,68.27
2022-09-12T12:50:24.927Z,68.30
2022-09-12T12:53:25.402Z,67.81
2022-09-12T12:56:05.786Z,65.97
2022-09-12T12:59:20.947Z,66.36
2022-09-12T13:02:07.709Z,66.20
2022-09-12T13:04:36.826Z,65.60
2022-09-12T13:07:30.249Z,64.64
2022-09-12T13:10:12.242Z,64.81
2022-09-12T13:13:15.215Z,65.63
2022-09-12T13:17:04.156Z,65.59
2022-09-12T13:20:33.772Z,65.78
2022-09-12T13:23:53.234Z,66.02
2022-09-12T13:27:13.214Z,65.65
2022-09-12T13:34:08.490Z,65.76
2022-09-12T13:37:21.513Z,65.63
2022-09-12T13:40:25.272Z,65.74
2022-09-12T13:44:01.521Z,65.57
2022-09-12T13:51:12.767Z,65.25
2022-09-12T14:01:53.043Z,64.81
2022-09-12T14:05:17.594Z,64.98
2022-09-12T14:11:57.212Z,64.84
2022-09-12T14:17:29.946Z,64.69
2022-09-12T14:20:35.388Z,65.14
2022-09-12T14:23:33.432Z,65.29
2022-09-12T14:26:22.887Z,64.28
2022-09-12T14:29:09.164Z,63.85
2022-09-12T14:31:42.390Z,63.07
2022-09-12T14:34:27.697Z,62.25
2022-09-12T14:37:18.192Z,61.65
2022-09-12T14:39:58.894Z,61.90
2022-09-12T14:42:42.844Z,61.66
2022-09-12T14:45:19.281Z,61.39
2022-09-12T14:47:51.501Z,61.33
2022-09-12T14:50:52.090Z,61.32
2022-09-12T14:53:38.710Z,62.00
2022-09-12T14:56:13.373Z,62.78
2022-09-12T14:58:44.960Z,62.94
2022-09-12T15:01:13.491Z,62.74
2022-09-12T15:03:50.050Z,63.01
2022-09-12T15:06:41.473Z,63.21
2022-09-12T15:09:28.163Z,63.35
2022-09-12T15:11:59.884Z,63.59
2022-09-12T15:14:33.060Z,63.76
2022-09-12T15:17:21.733Z,63.61
2022-09-12T15:20:11.306Z,64.12
2022-09-12T15:22:55.695Z,64.15
2022-09-12T15:25:41.495Z,64.54
2022-09-12T15:28:21.427Z,64.65
2022-09-12T15:30:52.436Z,64.74
2022-09-12T15:33:37.133Z,65.14
2022-09-12T15:36:14.074Z,64.92
2022-09-12T15:38:43.762Z,65.19
2022-09-12T15:41:50.979Z,65.08
2022-09-12T15:44:20.383Z,65.29
2022-09-12T15:46:49.045Z,65.53
2022-09-12T15:49:17.560Z,65.25
2022-09-12T15:51:48.317Z,65.18
2022-09-12T15:54:25.967Z,65.23
2022-09-12T15:56:57.715Z,65.34
2022-09-12T15:59:26.116Z,65.64
2022-09-12T16:01:56.743Z,65.86
2022-09-12T16:04:27.366Z,65.98
2022-09-12T16:06:57.226Z,66.28
2022-09-12T16:09:29.123Z,66.43
2022-09-12T16:12:00.501Z,66.89
2022-09-12T16:14:29.283Z,67.01
2022-09-12T16:16:57.529Z,67.47
2022-09-12T16:19:26.137Z,67.73
2022-09-12T16:21:59.871Z,68.30
2022-09-12T16:24:28.241Z,68.60
2022-09-12T16:27:01.249Z,68.85
2022-09-12T16:29:34.397Z,69.22
2022-09-12T16:32:03.216Z,69.71
2022-09-12T16:34:36.064Z,69.88
2022-09-12T16:37:07.647Z,70.36
2022-09-12T16:39:38.896Z,71.22
2022-09-12T16:42:07.426Z,71.63
2022-09-12T16:44:38.078Z,72.28
2022-09-12T16:47:06.763Z,72.59
2022-09-12T16:49:37.603Z,73.15
2022-09-12T16:52:07.109Z,73.58
2022-09-12T16:54:35.809Z,73.97
2022-09-12T16:57:08.442Z,74.55
2022-09-12T16:59:40.009Z,74.93
2022-09-12T17:02:14.993Z,75.36
2022-09-12T17:04:46.889Z,75.65
2022-09-12T17:07:20.500Z,75.97
2022-09-12T17:09:48.868Z,76.09
2022-09-12T17:12:29.576Z,76.61
2022-09-12T17:15:09.936Z,76.93
2022-09-12T17:17:41.515Z,77.21
2022-09-12T17:20:09.810Z,77.30
2022-09-12T17:22:41.050Z,77.78
2022-09-12T17:25:18.981Z,78.28
2022-09-12T17:27:51.769Z,78.82
2022-09-12T17:30:20.892Z,79.26
2022-09-12T17:33:00.721Z,79.64
2022-09-12T17:35:50.352Z,80.11
2022-09-12T17:38:24.561Z,80.66
2022-09-12T17:41:06.440Z,80.85
2022-09-12T17:43:48.515Z,81.38
2022-09-12T17:46:28.076Z,81.93
2022-09-12T17:48:58.064Z,82.21
2022-09-12T17:51:31.449Z,82.49
2022-09-12T17:54:03.800Z,82.64
2022-09-12T17:56:34.008Z,83.10
2022-09-12T17:59:13.734Z,83.27
2022-09-12T18:02:02.261Z,83.38
2022-09-12T18:04:42.001Z,83.76
2022-09-12T18:07:20.639Z,83.93
2022-09-12T18:09:56.112Z,84.15
2022-09-12T18:12:25.541Z,84.09
2022-09-12T18:14:57.048Z,84.11
2022-09-12T18:17:47.450Z,84.28
2022-09-12T18:20:17.988Z,84.54
2022-09-12T18:22:54.034Z,84.48
2022-09-12T18:25:30.413Z,85.09
2022-09-12T18:28:07.230Z,84.85
2022-09-12T18:30:37.601Z,85.25
2022-09-12T18:33:10.793Z,85.79
2022-09-12T18:35:39.265Z,86.00
2022-09-12T18:38:16.674Z,86.20
2022-09-12T18:40:51.516Z,86.02
2022-09-12T18:43:29.543Z,86.20
2022-09-12T18:46:04.908Z,86.42
2022-09-12T18:48:37.977Z,86.47
2022-09-12T18:51:11.583Z,86.59
2022-09-12T18:53:40.366Z,86.59
2022-09-12T18:56:16.169Z,86.86
2022-09-12T18:58:47.314Z,87.00
2022-09-12T19:01:28.179Z,87.09
2022-09-12T19:04:00.137Z,87.25
2022-09-12T19:06:34.668Z,87.48
2022-09-12T19:09:08.411Z,87.42
2022-09-12T19:11:39.781Z,87.55
2022-09-12T19:14:08.819Z,87.69
2022-09-12T19:16:37.663Z,87.82
2022-09-12T19:19:06.503Z,87.87
2022-09-12T19:21:38.171Z,88.19
2022-09-12T19:24:10.464Z,88.34
2022-09-12T19:26:42.417Z,88.29
2022-09-12T19:29:19.121Z,88.54
2022-09-12T19:31:48.052Z,88.65
2022-09-12T19:34:19.561Z,88.85
2022-09-12T19:36:52.742Z,88.86
2022-09-12T19:39:24.188Z,89.04
2022-09-12T19:41:52.785Z,89.09
2022-09-12T19:44:27.286Z,89.20
2022-09-12T19:46:55.964Z,89.07
2022-09-12T19:49:25.171Z,88.70
2022-09-12T19:51:53.526Z,89.03
2022-09-12T19:54:25.119Z,89.28
2022-09-12T19:56:55.871Z,89.05
2022-09-12T19:59:26.872Z,88.91
2022-09-12T20:01:55.889Z,89.10
2022-09-12T20:04:24.722Z,88.73
2022-09-12T20:06:57.029Z,88.86
2022-09-12T20:09:25.490Z,89.08
2022-09-12T20:11:53.887Z,89.38
2022-09-12T20:14:22.446Z,89.41
2022-09-12T20:16:51.435Z,89.11
2022-09-12T20:19:20.455Z,89.30
2022-09-12T20:21:48.966Z,89.24
2022-09-12T20:24:19.426Z,89.07
2022-09-12T20:26:47.830Z,88.98
2022-09-12T20:29:16.735Z,89.09
2022-09-12T20:31:45.255Z,89.48
2022-09-12T20:34:17.039Z,89.28
2022-09-12T20:36:45.873Z,88.98
2022-09-12T20:39:17.328Z,89.00
2022-09-12T20:41:47.287Z,88.52
2022-09-12T20:44:18.182Z,88.67
2022-09-12T20:46:47.166Z,88.51
2022-09-12T20:49:15.800Z,88.32
2022-09-12T20:51:48.709Z,88.46
2022-09-12T20:54:17.690Z,88.11
2022-09-12T20:56:49.635Z,88.51
2022-09-12T20:59:21.100Z,88.50
2022-09-12T21:01:49.603Z,88.53
2022-09-12T21:04:19.289Z,88.72
2022-09-12T21:06:48.086Z,88.65
2022-09-12T21:09:16.444Z,88.92
2022-09-12T21:11:50.542Z,88.58
2022-09-12T21:14:19.155Z,88.84
2022-09-12T21:16:49.907Z,88.54
2022-09-12T21:19:18.368Z,88.41
2022-09-12T21:21:55.733Z,88.19
2022-09-12T21:24:30.364Z,88.41
2022-09-12T21:27:03.494Z,88.40
2022-09-12T21:29:35.830Z,88.56
2022-09-12T21:32:10.015Z,88.91
2022-09-12T21:34:42.066Z,89.09
2022-09-12T21:37:10.325Z,89.10
2022-09-12T21:39:42.501Z,89.35
2022-09-12T21:42:10.778Z,89.28
2022-09-12T21:44:39.470Z,89.22
2022-09-12T21:47:10.880Z,88.50
2022-09-12T21:49:39.128Z,88.60
2022-09-12T21:52:08.260Z,88.74
2022-09-12T21:54:42.668Z,88.75
2022-09-12T21:57:11.117Z,88.73
2022-09-12T21:59:39.928Z,88.87
2022-09-12T22:02:10.964Z,89.02
2022-09-12T22:04:39.761Z,89.01
2022-09-12T22:07:09.694Z,88.99
2022-09-12T22:09:39.709Z,89.20
2022-09-12T22:12:12.871Z,89.26
2022-09-12T22:14:42.651Z,89.19
2022-09-12T22:17:14.035Z,88.79
2022-09-12T22:19:42.427Z,88.69
2022-09-12T22:22:29.508Z,88.25
2022-09-12T22:24:57.925Z,88.42
2022-09-12T22:27:27.108Z,88.12
2022-09-12T22:29:55.534Z,88.12
2022-09-12T22:32:24.650Z,87.92
2022-09-12T22:34:53.029Z,88.41
2022-09-12T22:37:21.425Z,88.56
2022-09-12T22:39:50.003Z,88.75
2022-09-12T22:42:18.589Z,89.06
2022-09-12T22:44:50.374Z,89.25
2022-09-12T22:47:20.721Z,88.79
2022-09-12T22:49:48.927Z,89.03
2022-09-12T22:52:17.548Z,88.88
2022-09-12T22:54:48.494Z,89.24
2022-09-12T22:57:17.709Z,88.93
2022-09-12T22:59:46.773Z,88.74
2022-09-12T23:02:14.944Z,88.94
2022-09-12T23:04:44.274Z,88.59
2022-09-12T23:07:12.771Z,88.99
2022-09-12T23:09:41.110Z,88.60
2022-09-12T23:12:11.868Z,88.59
2022-09-12T23:14:43.471Z,88.97
2022-09-12T23:17:14.977Z,88.83
2022-09-12T23:19:43.212Z,88.68
2022-09-12T23:22:12.041Z,88.75
2022-09-12T23:24:40.606Z,89.12
2022-09-12T23:27:16.047Z,89.08
2022-09-12T23:29:44.876Z,89.11
2022-09-12T23:32:22.490Z,89.20
2022-09-12T23:34:53.579Z,89.36
2022-09-12T23:37:21.893Z,89.35
2022-09-12T23:39:50.564Z,89.40
2022-09-12T23:42:22.188Z,90.38
2022-09-12T23:44:50.689Z,90.46
2022-09-12T23:47:19.084Z,90.80
2022-09-12T23:49:50.223Z,91.02
2022-09-12T23:52:21.087Z,90.89
2022-09-12T23:54:52.884Z,90.75
2022-09-12T23:57:21.778Z,90.33
2022-09-12T23:59:54.362Z,90.75
